Time;durP1;ratioP1;P1;durP2;ratioP2;P2;SDS_P1;SDS_P2;PMS_P1;PMS_P2;Temp;Humidity;BMP_temperature;BMP_pressure;BME280_temperature;BME280_humidity;BME280_pressure;Samples;Min_cycle;Max_cycle;Signal;HPM_P1;HPM_P2
2021/01/14 00:00:21;;;;;;;10.15;1.67;;;;;;;-0.44;85.22;101092.16;4985968;28;20083;-77
2021/01/14 00:02:46;;;;;;;6.45;1.52;;;;;;;-0.37;85.48;101097.91;5055344;28;20029;-75
2021/01/14 00:05:13;;;;;;;9.95;1.80;;;;;;;-0.46;85.75;101105.09;5022890;28;20041;-77
2021/01/14 00:07:39;;;;;;;7.40;1.45;;;;;;;-0.45;85.32;101116.28;5012593;28;20030;-76
2021/01/14 00:10:07;;;;;;;7.80;1.67;;;;;;;-0.32;84.40;101106.25;5007059;28;20025;-76
2021/01/14 00:12:33;;;;;;;6.80;1.65;;;;;;;-0.37;84.93;101114.19;5023249;28;20044;-75
2021/01/14 00:14:59;;;;;;;7.70;1.73;;;;;;;-0.47;87.50;101134.38;5020417;28;20045;-75
2021/01/14 00:17:24;;;;;;;4.22;1.48;;;;;;;-0.42;87.05;101131.59;5015747;28;20088;-75
2021/01/14 00:19:50;;;;;;;9.40;2.33;;;;;;;-0.38;86.99;101134.88;5022851;28;20037;-75
2021/01/14 00:22:16;;;;;;;4.53;1.83;;;;;;;-0.41;86.71;101141.00;5025743;28;20043;-78
2021/01/14 00:24:41;;;;;;;9.00;1.77;;;;;;;-0.49;88.60;101146.50;5038139;28;20037;-76
2021/01/14 00:27:08;;;;;;;8.20;2.13;;;;;;;-0.42;88.04;101167.66;5037488;28;20046;-78
2021/01/14 00:29:34;;;;;;;7.10;2.40;;;;;;;-0.52;90.43;101164.66;5022770;28;20040;-76
2021/01/14 00:31:59;;;;;;;7.75;2.05;;;;;;;-0.56;91.52;101168.25;5045377;28;20039;-74
2021/01/14 00:34:25;;;;;;;9.50;2.83;;;;;;;-0.70;93.79;101171.41;5044332;28;20105;-76
2021/01/14 00:39:35;;;;;;;13.15;2.85;;;;;;;-0.80;95.40;101191.56;5039106;28;20041;-77
2021/01/14 00:42:00;;;;;;;9.73;2.83;;;;;;;-0.86;95.13;101191.81;4995117;28;20045;-76
2021/01/14 00:44:26;;;;;;;12.15;2.88;;;;;;;-0.94;95.85;101199.00;5030153;28;20037;-77
2021/01/14 00:46:58;;;;;;;8.98;2.50;;;;;;;-0.87;95.31;101200.41;5024986;28;20045;-78
2021/01/14 00:49:24;;;;;;;13.82;3.20;;;;;;;-0.97;95.26;101175.94;5024837;28;20036;-75
2021/01/14 00:51:51;;;;;;;10.00;3.55;;;;;;;-0.80;95.52;101204.44;5039795;28;20040;-76
2021/01/14 00:54:17;;;;;;;10.00;3.00;;;;;;;-0.80;95.46;101201.03;5040401;28;20033;-75
2021/01/14 00:56:43;;;;;;;12.15;2.95;;;;;;;-0.76;95.11;101222.34;5052488;28;20033;-77
2021/01/14 00:59:08;;;;;;;7.97;2.53;;;;;;;-0.80;95.26;101222.47;5024573;28;20048;-76
2021/01/14 01:01:38;;;;;;;9.60;3.75;;;;;;;-0.83;95.09;101221.75;5039004;28;20403;-76
2021/01/14 01:04:04;;;;;;;12.35;3.38;;;;;;;-0.72;95.52;101237.59;5040816;28;20059;-77
2021/01/14 01:06:34;;;;;;;6.40;2.65;;;;;;;-0.70;95.14;101240.13;5008914;28;20108;-75
2021/01/14 01:09:01;;;;;;;6.10;3.20;;;;;;;-0.67;95.55;101247.75;5036761;28;20041;-75
2021/01/14 01:11:27;;;;;;;7.50;3.55;;;;;;;-0.66;95.51;101254.56;5008441;28;20039;-75
2021/01/14 01:13:53;;;;;;;8.57;3.38;;;;;;;-0.68;95.62;101259.78;5037869;28;20037;-77
2021/01/14 01:16:19;;;;;;;6.50;3.40;;;;;;;-0.68;95.42;101262.38;5021329;28;20484;-76
2021/01/14 01:18:46;;;;;;;12.15;3.28;;;;;;;-0.66;95.55;101270.88;5034116;28;20443;-77
2021/01/14 01:21:12;;;;;;;8.05;3.45;;;;;;;-0.68;96.19;101279.53;5020384;28;20033;-77
2021/01/14 01:23:37;;;;;;;14.57;4.07;;;;;;;-0.66;95.64;101273.44;5029244;28;20556;-77
2021/01/14 01:26:04;;;;;;;7.10;3.20;;;;;;;-0.66;96.33;101288.06;5020716;28;20037;-75
2021/01/14 01:28:30;;;;;;;9.30;3.78;;;;;;;-0.65;96.51;101289.75;5034740;28;20036;-77
2021/01/14 01:30:55;;;;;;;10.45;3.85;;;;;;;-0.65;96.76;101294.91;5032223;28;20369;-76
2021/01/14 01:33:25;;;;;;;8.02;3.80;;;;;;;-0.59;96.83;101292.06;5044507;28;20044;-77
2021/01/14 01:35:51;;;;;;;12.45;4.15;;;;;;;-0.68;96.78;101292.44;5031427;28;20138;-78
2021/01/14 01:38:16;;;;;;;9.60;3.83;;;;;;;-0.60;97.11;101311.03;5020551;28;20034;-76
2021/01/14 01:40:42;;;;;;;9.90;4.10;;;;;;;-0.69;97.57;101322.50;5015390;28;20076;-75
2021/01/14 01:43:08;;;;;;;11.50;3.60;;;;;;;-0.62;97.48;101325.69;5034043;28;20033;-75
2021/01/14 01:45:34;;;;;;;9.13;3.53;;;;;;;-0.54;96.99;101338.28;5018709;28;20029;-75
2021/01/14 01:48:00;;;;;;;7.88;3.45;;;;;;;-0.56;96.90;101330.59;5006543;28;20084;-77
2021/01/14 01:50:26;;;;;;;7.57;3.83;;;;;;;-0.51;96.82;101353.59;5046684;28;20112;-74
2021/01/14 01:52:53;;;;;;;7.88;3.30;;;;;;;-0.45;96.60;101351.63;5027136;28;20112;-76
2021/01/14 01:55:19;;;;;;;7.38;3.20;;;;;;;-0.45;96.29;101353.38;5020556;28;20063;-75
2021/01/14 01:57:44;;;;;;;8.95;2.97;;;;;;;-0.42;96.46;101355.81;5047471;28;20032;-76
2021/01/14 02:00:10;;;;;;;8.95;3.33;;;;;;;-0.43;96.83;101372.22;5041976;28;20112;-77
2021/01/14 02:02:36;;;;;;;8.13;3.30;;;;;;;-0.54;96.71;101375.19;5040978;28;20440;-75
2021/01/14 02:05:02;;;;;;;9.00;4.00;;;;;;;-0.47;97.32;101386.09;5018435;28;20041;-77
2021/01/14 02:10:38;;;;;;;5.68;3.25;;;;;;;-0.49;97.32;101396.47;5715121;23;20059;-80
2021/01/14 02:13:29;;;;;;;6.88;3.10;;;;;;;-0.50;97.69;101402.53;4949559;28;20046;-77
2021/01/14 02:15:58;;;;;;;6.90;3.33;;;;;;;-0.56;97.72;101402.75;4951581;28;20039;-77
2021/01/14 02:18:24;;;;;;;4.55;3.00;;;;;;;-0.49;97.09;101409.38;4942140;28;20408;-76
2021/01/14 02:20:54;;;;;;;6.05;3.42;;;;;;;-0.52;97.67;101424.09;4934637;29;20032;-76
2021/01/14 02:23:40;;;;;;;7.10;3.38;;;;;;;-0.44;97.92;101438.34;4934816;29;20035;-76
2021/01/14 02:26:16;;;;;;;5.57;2.90;;;;;;;-0.44;97.61;101438.34;4919650;29;20402;-76
2021/01/14 02:28:44;;;;;;;6.35;3.17;;;;;;;-0.44;97.56;101437.53;4935377;29;20036;-77
2021/01/14 02:31:10;;;;;;;6.93;3.15;;;;;;;-0.50;97.75;101441.19;4903994;29;20040;-77
2021/01/14 02:33:36;;;;;;;7.00;3.22;;;;;;;-0.49;97.74;101448.03;4921390;29;20098;-77
2021/01/14 02:36:03;;;;;;;6.97;3.40;;;;;;;-0.51;97.66;101459.28;4928163;29;20463;-75
2021/01/14 02:38:29;;;;;;;4.93;2.83;;;;;;;-0.51;97.77;101457.56;4964716;28;20034;-76
2021/01/14 02:40:54;;;;;;;6.65;2.70;;;;;;;-0.48;97.58;101480.63;4928299;29;20035;-76
2021/01/14 02:43:20;;;;;;;6.63;2.70;;;;;;;-0.45;97.87;101477.09;4922043;29;20027;-76
2021/01/14 02:45:45;;;;;;;5.78;2.80;;;;;;;-0.45;97.90;101490.81;4941462;29;20042;-76
2021/01/14 02:48:14;;;;;;;6.57;3.35;;;;;;;-0.52;97.79;101485.97;4934523;29;20031;-78
2021/01/14 02:50:40;;;;;;;4.35;3.08;;;;;;;-0.57;98.48;101495.59;4938030;29;20067;-76
2021/01/14 02:53:07;;;;;;;6.32;2.97;;;;;;;-0.57;98.20;101503.31;4907428;29;20114;-77
2021/01/14 02:55:33;;;;;;;5.60;3.03;;;;;;;-0.62;98.82;101504.34;4939094;29;20052;-76
2021/01/14 02:57:59;;;;;;;6.22;3.35;;;;;;;-0.59;98.57;101513.69;4952187;29;20047;-76
2021/01/14 03:00:24;;;;;;;6.22;3.60;;;;;;;-0.59;98.35;101519.66;4970328;28;20567;-76
2021/01/14 03:02:50;;;;;;;7.72;3.78;;;;;;;-0.61;98.89;101518.88;4922120;29;20035;-76
2021/01/14 03:05:16;;;;;;;7.80;3.78;;;;;;;-0.52;98.67;101532.34;4932152;28;20476;-77
2021/01/14 03:07:41;;;;;;;6.60;3.83;;;;;;;-0.49;98.16;101525.34;4934755;29;20453;-80
2021/01/14 03:10:07;;;;;;;8.13;3.47;;;;;;;-0.50;98.10;101533.13;4922757;29;20043;-79
2021/01/14 03:12:33;;;;;;;8.55;4.10;;;;;;;-0.49;98.32;101532.22;4916129;29;20172;-78
2021/01/14 03:14:58;;;;;;;9.93;4.10;;;;;;;-0.48;98.44;101549.38;4925479;29;20043;-77
2021/01/14 03:17:24;;;;;;;10.60;3.88;;;;;;;-0.42;97.64;101547.41;4935686;29;20508;-77
2021/01/14 03:19:51;;;;;;;8.48;3.90;;;;;;;-0.39;97.69;101549.03;4939022;29;20512;-78
2021/01/14 03:22:17;;;;;;;6.95;3.90;;;;;;;-0.45;97.83;101552.69;4942929;29;20023;-77
2021/01/14 03:24:42;;;;;;;7.57;3.67;;;;;;;-0.33;97.93;101566.03;4941020;28;20179;-77
2021/01/14 03:27:09;;;;;;;12.93;5.00;;;;;;;-0.48;98.72;101563.09;4940346;29;20098;-77
2021/01/14 03:29:35;;;;;;;8.00;4.28;;;;;;;-0.35;98.60;101568.66;4924416;29;20043;-77
2021/01/14 03:32:01;;;;;;;9.32;4.90;;;;;;;-0.43;98.39;101565.53;4907504;29;20115;-77
2021/01/14 03:34:27;;;;;;;9.63;4.40;;;;;;;-0.40;97.84;101574.00;4892130;29;20044;-78
2021/01/14 03:37:02;;;;;;;12.90;4.78;;;;;;;-0.38;98.18;101583.38;4891753;29;20047;-78
2021/01/14 03:39:29;;;;;;;17.02;4.65;;;;;;;-0.42;98.22;101569.75;4924356;29;20036;-77
2021/01/14 03:41:56;;;;;;;12.73;4.72;;;;;;;-0.36;98.04;101587.56;4929713;29;20096;-79
2021/01/14 03:44:23;;;;;;;12.32;5.30;;;;;;;-0.36;97.77;101587.56;4945778;29;20393;-80
2021/01/14 03:46:50;;;;;;;20.35;5.10;;;;;;;-0.29;97.15;101593.38;4922997;29;20036;-78
2021/01/14 03:49:16;;;;;;;9.23;4.78;;;;;;;-0.31;97.60;101610.63;4921648;29;20061;-78
2021/01/14 03:51:46;;;;;;;10.38;4.90;;;;;;;-0.31;97.48;101606.31;4921964;29;20051;-77
2021/01/14 03:54:12;;;;;;;10.07;4.80;;;;;;;-0.34;97.69;101597.84;4921659;29;20036;-77
2021/01/14 03:56:39;;;;;;;10.13;4.80;;;;;;;-0.34;98.00;101610.72;4921657;29;20082;-76
2021/01/14 03:59:05;;;;;;;11.23;4.88;;;;;;;-0.37;98.44;101611.69;4937241;29;20127;-76
2021/01/14 04:01:31;;;;;;;8.10;4.88;;;;;;;-0.44;98.42;101598.16;4920187;29;20462;-77
2021/01/14 04:03:57;;;;;;;13.70;5.40;;;;;;;-0.32;97.73;101606.34;4918447;29;20087;-77
2021/01/14 04:06:30;;;;;;;12.07;5.10;;;;;;;-0.35;98.13;101625.38;4932101;29;20043;-77
2021/01/14 04:08:57;;;;;;;15.63;5.22;;;;;;;-0.38;97.74;101612.56;4937134;29;20115;-77
2021/01/14 04:11:22;;;;;;;9.68;5.10;;;;;;;-0.36;97.67;101618.50;4937053;29;20039;-77
2021/01/14 04:13:48;;;;;;;12.13;5.22;;;;;;;-0.29;97.54;101634.63;4929466;29;20102;-77
2021/01/14 04:16:13;;;;;;;13.20;5.28;;;;;;;-0.40;97.62;101628.13;4940522;29;20070;-77
2021/01/14 04:18:39;;;;;;;15.55;5.55;;;;;;;-0.20;97.62;101642.88;4972911;28;20039;-77
2021/01/14 04:21:04;;;;;;;12.40;5.13;;;;;;;-0.31;97.55;101644.97;4940713;29;20074;-77
2021/01/14 04:23:30;;;;;;;10.07;5.85;;;;;;;-0.30;96.99;101648.41;4954879;29;20058;-77
2021/01/14 04:25:56;;;;;;;14.98;5.93;;;;;;;-0.28;97.14;101636.31;4937460;29;20050;-77
2021/01/14 04:28:22;;;;;;;15.55;6.07;;;;;;;-0.30;97.24;101644.09;4937799;29;20036;-77
2021/01/14 04:30:47;;;;;;;15.57;6.57;;;;;;;-0.22;96.61;101652.41;4921514;29;20047;-77
2021/01/14 04:33:13;;;;;;;14.45;6.13;;;;;;;-0.23;96.85;101666.19;4937241;29;20118;-77
2021/01/14 04:35:42;;;;;;;21.98;6.35;;;;;;;-0.25;97.10;101656.81;4937226;29;20087;-77
2021/01/14 04:38:08;;;;;;;11.95;6.20;;;;;;;-0.26;96.62;101657.72;4933798;29;20494;-76
2021/01/14 04:40:33;;;;;;;15.77;6.72;;;;;;;-0.30;96.64;101666.44;4902200;29;20047;-77
2021/01/14 04:42:59;;;;;;;20.38;6.95;;;;;;;-0.22;96.17;101682.50;4916331;29;20527;-77
2021/01/14 04:45:25;;;;;;;18.48;7.25;;;;;;;-0.37;96.95;101668.41;4956505;29;20054;-77
2021/01/14 04:47:50;;;;;;;15.27;6.68;;;;;;;-0.22;96.63;101683.34;4957459;28;20476;-76
2021/01/14 04:50:17;;;;;;;15.40;6.88;;;;;;;-0.30;96.97;101685.34;4956221;28;20122;-77
2021/01/14 04:52:46;;;;;;;13.75;6.55;;;;;;;-0.26;96.68;101686.09;4921425;29;20048;-78
2021/01/14 04:55:15;;;;;;;17.58;7.35;;;;;;;-0.26;97.03;101701.56;4937071;29;20115;-77
2021/01/14 04:57:43;;;;;;;16.83;6.90;;;;;;;-0.31;96.75;101699.13;4936223;29;20445;-76
2021/01/14 05:00:12;;;;;;;13.88;7.10;;;;;;;-0.25;96.77;101703.22;4937075;29;20035;-77
2021/01/14 05:03:05;;;;;;;18.15;6.80;;;;;;;-0.30;97.24;101708.56;4936025;29;20023;-77
2021/01/14 05:05:32;;;;;;;14.55;6.70;;;;;;;-0.31;96.96;101719.75;4916951;29;20127;-77
2021/01/14 05:08:06;;;;;;;16.50;6.82;;;;;;;-0.21;96.46;101722.84;4901936;29;20106;-77
2021/01/14 05:10:33;;;;;;;17.40;6.75;;;;;;;-0.35;96.67;101712.19;4936192;29;20115;-77
2021/01/14 05:12:59;;;;;;;13.55;6.20;;;;;;;-0.21;96.58;101722.84;4941636;29;20043;-78
2021/01/14 05:15:27;;;;;;;14.50;6.88;;;;;;;-0.29;96.34;101717.13;4919610;29;20036;-76
2021/01/14 05:17:55;;;;;;;14.23;7.10;;;;;;;-0.33;96.56;101721.53;4920172;29;20046;-77
2021/01/14 05:20:21;;;;;;;12.50;6.78;;;;;;;-0.33;96.83;101723.28;4937510;29;20111;-76
2021/01/14 05:22:47;;;;;;;18.00;7.25;;;;;;;-0.27;96.52;101731.63;4936391;29;20063;-75
2021/01/14 05:25:13;;;;;;;16.15;7.43;;;;;;;-0.23;96.75;101745.28;4925970;29;20067;-77
2021/01/14 05:27:39;;;;;;;20.17;6.85;;;;;;;-0.22;96.09;101740.06;4920894;29;20044;-77
2021/01/14 05:30:10;;;;;;;18.25;6.88;;;;;;;-0.18;96.71;101745.13;4920176;29;20053;-76
2021/01/14 05:32:41;;;;;;;20.25;7.05;;;;;;;-0.25;96.90;101755.63;4936511;29;20481;-77
2021/01/14 05:35:09;;;;;;;16.92;6.85;;;;;;;-0.21;96.59;101757.25;4936128;29;20086;-77
2021/01/14 05:37:43;;;;;;;19.83;6.97;;;;;;;-0.17;96.39;101768.28;4904610;29;20043;-76
2021/01/14 05:40:10;;;;;;;16.17;7.10;;;;;;;-0.23;96.02;101753.88;4935162;29;20063;-77
2021/01/14 05:42:36;;;;;;;18.95;6.72;;;;;;;-0.14;96.10;101773.31;4920687;29;20035;-76
2021/01/14 05:45:03;;;;;;;18.23;6.78;;;;;;;-0.14;95.50;101775.06;4921789;29;20043;-77
2021/01/14 05:47:30;;;;;;;18.42;6.88;;;;;;;-0.10;95.66;101776.66;4945642;29;20451;-77
2021/01/14 05:50:01;;;;;;;14.32;6.80;;;;;;;-0.21;95.78;101772.72;4923572;29;20189;-78
2021/01/14 05:52:29;;;;;;;22.75;7.28;;;;;;;-0.17;95.60;101785.47;4916924;29;20059;-77
2021/01/14 05:55:08;;;;;;;16.23;7.05;;;;;;;-0.05;95.64;101793.66;4910325;29;20040;-77
2021/01/14 05:57:38;;;;;;;17.95;6.50;;;;;;;-0.15;95.38;101778.53;4922843;29;20044;-78
2021/01/14 06:00:12;;;;;;;19.88;7.40;;;;;;;-0.08;94.61;101795.50;4913704;29;20047;-76
2021/01/14 06:02:39;;;;;;;16.35;7.30;;;;;;;-0.07;94.81;101800.59;4940257;29;20066;-77
2021/01/14 06:05:25;;;;;;;22.33;7.05;;;;;;;-0.06;95.02;101793.69;4903025;28;20047;-76
2021/01/14 06:07:51;;;;;;;13.10;7.07;;;;;;;-0.03;94.24;101809.91;4935715;29;20047;-77
2021/01/14 06:10:32;;;;;;;17.42;7.20;;;;;;;-0.06;94.44;101817.78;4915882;29;20079;-76
2021/01/14 06:12:58;;;;;;;16.27;7.35;;;;;;;-0.06;94.51;101811.75;4928559;29;20035;-77
2021/01/14 06:15:24;;;;;;;20.23;7.32;;;;;;;-0.15;95.60;101812.06;4950878;28;20032;-78
2021/01/14 06:17:50;;;;;;;14.68;7.38;;;;;;;-0.09;94.56;101819.63;4936710;29;20492;-78
2021/01/14 06:20:16;;;;;;;23.83;6.68;;;;;;;-0.09;94.76;101820.44;4935996;29;20058;-78
2021/01/14 06:22:44;;;;;;;14.18;6.65;;;;;;;-0.05;93.92;101828.94;4934742;29;20028;-78
2021/01/14 06:25:11;;;;;;;12.38;6.55;;;;;;;-0.12;94.84;101830.00;4912186;29;20049;-77
2021/01/14 06:27:37;;;;;;;17.00;6.88;;;;;;;-0.18;93.99;101828.47;4915595;29;20409;-76
2021/01/14 06:30:12;;;;;;;16.67;6.85;;;;;;;-0.07;93.81;101849.59;4899878;29;20036;-77
2021/01/14 06:32:38;;;;;;;15.63;6.57;;;;;;;-0.11;93.18;101842.03;4900545;29;20052;-77
2021/01/14 06:35:06;;;;;;;11.63;6.57;;;;;;;-0.06;94.45;101861.63;4914471;29;20040;-76
2021/01/14 06:37:37;;;;;;;18.02;6.72;;;;;;;-0.04;93.27;101862.41;4919096;29;20083;-78
2021/01/14 06:40:07;;;;;;;13.55;6.40;;;;;;;-0.11;93.38;101860.91;4935563;29;20055;-78
2021/01/14 06:42:36;;;;;;;14.38;6.07;;;;;;;-0.01;92.63;101864.03;4906966;29;20121;-77
2021/01/14 06:45:11;;;;;;;13.60;5.97;;;;;;;-0.10;93.63;101872.06;4918389;29;20042;-78
2021/01/14 06:47:45;;;;;;;15.13;6.18;;;;;;;-0.18;93.54;101872.31;4918041;29;20063;-78
2021/01/14 06:50:17;;;;;;;13.93;5.95;;;;;;;-0.28;94.38;101879.53;4933890;29;20032;-76
2021/01/14 06:52:48;;;;;;;11.30;6.15;;;;;;;-0.34;94.54;101879.72;4920309;29;20048;-77
2021/01/14 06:55:15;;;;;;;13.38;6.15;;;;;;;-0.34;94.57;101882.31;4921559;29;20065;-77
2021/01/14 06:57:55;;;;;;;17.98;6.82;;;;;;;-0.48;94.14;101882.72;4918843;29;20032;-77
2021/01/14 07:00:22;;;;;;;11.43;6.28;;;;;;;-0.57;94.32;101889.88;4911716;29;20363;-76
2021/01/14 07:02:53;;;;;;;18.08;6.10;;;;;;;-0.61;94.34;101894.28;4934602;29;20059;-78
2021/01/14 07:05:27;;;;;;;19.30;7.50;;;;;;;-0.65;95.09;101903.84;4949965;29;20032;-76
2021/01/14 07:08:31;;;;;;;15.90;6.70;;;;;;;-0.71;95.09;101901.44;4936154;29;20036;-77
2021/01/14 07:11:13;;;;;;;14.68;7.20;;;;;;;-0.60;95.36;101914.03;4933950;29;20529;-76
2021/01/14 07:13:43;;;;;;;20.10;6.50;;;;;;;-0.60;95.27;101917.44;4939909;29;20032;-76
2021/01/14 07:16:12;;;;;;;15.13;7.55;;;;;;;-0.54;94.88;101929.31;4917480;29;20075;-76
2021/01/14 07:18:38;;;;;;;15.38;6.70;;;;;;;-0.48;94.46;101933.44;4910253;29;20039;-76
2021/01/14 07:21:23;;;;;;;13.07;6.57;;;;;;;-0.44;94.63;101935.84;4903333;29;20039;-76
2021/01/14 07:24:04;;;;;;;14.48;6.50;;;;;;;-0.41;94.27;101945.25;4934503;29;20051;-78
2021/01/14 07:26:32;;;;;;;15.77;6.30;;;;;;;-0.32;94.08;101942.41;4934674;29;20067;-77
2021/01/14 07:29:00;;;;;;;14.32;6.65;;;;;;;-0.23;92.96;101947.28;4904352;29;20051;-76
2021/01/14 07:31:27;;;;;;;10.73;5.85;;;;;;;-0.24;93.32;101949.88;4950252;29;20041;-76
2021/01/14 07:33:54;;;;;;;13.90;6.68;;;;;;;-0.27;94.09;101960.28;4921965;29;20045;-77
2021/01/14 07:36:24;;;;;;;16.80;6.40;;;;;;;-0.32;93.87;101959.56;4946598;29;20039;-76
2021/01/14 07:38:55;;;;;;;16.85;6.97;;;;;;;-0.27;94.10;101966.28;4899831;29;20417;-76
2021/01/14 07:41:21;;;;;;;14.00;6.70;;;;;;;-0.25;92.48;101968.81;4917363;29;20031;-79
2021/01/14 07:43:48;;;;;;;15.40;5.88;;;;;;;-0.23;93.30;101970.47;4933468;29;20040;-77
2021/01/14 07:46:20;;;;;;;15.23;6.20;;;;;;;-0.24;92.65;101967.94;4934124;29;20496;-76
2021/01/14 07:48:47;;;;;;;10.48;5.78;;;;;;;-0.23;93.20;101979.94;4914878;29;20044;-76
2021/01/14 07:51:13;;;;;;;12.15;5.70;;;;;;;-0.29;93.43;101983.53;4916964;29;20036;-76
2021/01/14 07:53:39;;;;;;;18.13;6.03;;;;;;;-0.18;93.18;101982.38;4926787;29;20044;-77
2021/01/14 07:56:25;;;;;;;12.30;5.82;;;;;;;-0.20;93.85;101993.56;4925448;29;20039;-75
2021/01/14 07:58:53;;;;;;;12.77;6.40;;;;;;;-0.22;93.60;101995.34;4918423;29;20035;-76
2021/01/14 08:01:19;;;;;;;16.50;6.07;;;;;;;-0.20;92.99;101993.56;4917440;29;20031;-76
2021/01/14 08:03:45;;;;;;;12.88;5.45;;;;;;;-0.14;92.14;101996.88;4902142;29;20047;-77
2021/01/14 08:06:35;;;;;;;12.82;5.88;;;;;;;-0.09;91.91;101997.56;4925698;29;20055;-76
2021/01/14 08:09:06;;;;;;;19.50;5.97;;;;;;;-0.10;92.04;102011.34;4932378;29;20489;-77
2021/01/14 08:11:33;;;;;;;12.63;5.40;;;;;;;0.02;89.72;102008.41;4901857;29;20111;-77
2021/01/14 08:14:18;;;;;;;10.90;4.63;;;;;;;0.06;89.71;102007.41;4949711;28;20095;-77
2021/01/14 08:16:46;;;;;;;11.02;5.60;;;;;;;0.12;89.71;102014.13;4954351;28;20039;-76
2021/01/14 08:19:37;;;;;;;19.50;5.97;;;;;;;0.08;89.14;102020.28;4948449;29;20457;-76
2021/01/14 08:22:11;;;;;;;12.63;6.15;;;;;;;0.05;90.50;102028.94;4957128;29;20051;-77
2021/01/14 08:24:47;;;;;;;15.48;5.78;;;;;;;0.01;91.33;102026.50;4973140;28;20035;-76
2021/01/14 08:27:28;;;;;;;14.73;5.55;;;;;;;0.03;91.40;102030.72;4958006;29;20521;-81
2021/01/14 08:30:06;;;;;;;12.65;6.00;;;;;;;-0.02;91.86;102033.47;4944316;28;20489;-80
2021/01/14 08:32:36;;;;;;;14.15;6.10;;;;;;;0.04;91.68;102042.75;4975611;28;20044;-76
2021/01/14 08:35:05;;;;;;;9.48;5.47;;;;;;;-0.02;91.69;102040.31;4959715;29;20043;-78
2021/01/14 08:37:48;;;;;;;10.07;5.22;;;;;;;0.09;90.81;102046.00;4943560;29;20034;-77
2021/01/14 08:40:18;;;;;;;12.43;5.57;;;;;;;0.06;91.56;102045.25;4951379;29;20070;-80
2021/01/14 08:42:45;;;;;;;14.77;6.60;;;;;;;0.19;90.12;102052.59;4938191;29;20508;-76
2021/01/14 08:45:21;;;;;;;14.20;6.03;;;;;;;0.21;90.68;102052.53;4940264;29;20032;-76
2021/01/14 08:48:09;;;;;;;14.80;6.10;;;;;;;0.30;90.74;102061.72;4939097;29;20070;-77
2021/01/14 08:50:34;;;;;;;11.10;5.70;;;;;;;0.30;90.98;102066.88;4939081;29;20437;-76
2021/01/14 08:53:06;;;;;;;13.82;5.85;;;;;;;0.27;91.89;102069.56;4958204;29;20047;-78
2021/01/14 08:55:32;;;;;;;14.50;5.70;;;;;;;0.28;91.09;102069.50;4957856;28;20489;-76
2021/01/14 08:57:57;;;;;;;10.40;5.78;;;;;;;0.51;89.37;102078.25;4927380;29;20040;-75
2021/01/14 09:00:24;;;;;;;12.68;6.20;;;;;;;0.45;90.27;102081.88;4920381;29;20110;-78
2021/01/14 09:02:51;;;;;;;11.15;6.18;;;;;;;0.37;91.46;102079.53;4934754;29;20048;-78
2021/01/14 09:05:17;;;;;;;15.38;6.40;;;;;;;0.36;90.79;102080.47;4902091;29;20047;-76
2021/01/14 09:08:05;;;;;;;14.10;6.38;;;;;;;0.43;90.59;102090.59;4902797;29;20063;-77
2021/01/14 09:10:40;;;;;;;12.07;5.28;;;;;;;0.48;89.99;102084.38;4917773;29;20414;-75
2021/01/14 09:13:08;;;;;;;20.88;6.82;;;;;;;0.49;90.19;102082.63;4934782;29;20048;-76
2021/01/14 09:15:33;;;;;;;11.98;5.78;;;;;;;0.56;89.89;102086.72;4933542;29;20043;-76
2021/01/14 09:18:07;;;;;;;17.05;6.30;;;;;;;0.55;89.65;102092.78;4936986;29;20043;-77
2021/01/14 09:20:33;;;;;;;11.70;6.20;;;;;;;0.59;90.09;102094.38;4936900;29;20114;-76
2021/01/14 09:23:19;;;;;;;13.82;6.07;;;;;;;0.62;88.18;102098.59;4921268;29;20115;-76
2021/01/14 09:25:50;;;;;;;12.40;6.05;;;;;;;0.58;89.06;102103.00;4937539;29;20048;-76
2021/01/14 09:28:16;;;;;;;12.35;5.45;;;;;;;0.59;89.22;102104.72;4904690;29;20047;-75
2021/01/14 09:30:42;;;;;;;14.48;6.63;;;;;;;0.58;88.44;102097.84;4936341;29;20044;-76
2021/01/14 09:33:09;;;;;;;13.65;6.22;;;;;;;0.52;89.31;102100.63;4921581;29;20099;-77
2021/01/14 09:35:35;;;;;;;11.52;6.28;;;;;;;0.54;88.20;102114.31;4943622;28;20031;-76
2021/01/14 09:38:01;;;;;;;15.65;6.30;;;;;;;0.53;90.11;102115.25;4945893;29;20050;-76
2021/01/14 09:40:26;;;;;;;14.55;6.07;;;;;;;0.60;89.21;102124.44;4935396;29;20035;-76
2021/01/14 09:42:52;;;;;;;16.27;5.93;;;;;;;0.61;89.46;102123.56;4925625;29;20067;-76
2021/01/14 09:45:20;;;;;;;12.40;5.72;;;;;;;0.57;89.81;102134.91;4922247;29;20122;-77
2021/01/14 09:47:50;;;;;;;17.52;6.07;;;;;;;0.51;88.83;102129.91;4918075;29;20084;-76
2021/01/14 09:50:16;;;;;;;11.43;5.40;;;;;;;0.59;89.60;102130.53;4901180;29;20036;-76
2021/01/14 09:52:42;;;;;;;14.35;5.88;;;;;;;0.73;89.32;102138.66;4932749;29;20054;-77
2021/01/14 09:55:12;;;;;;;10.02;5.38;;;;;;;0.62;89.34;102130.41;4916971;29;20048;-74
2021/01/14 09:57:52;;;;;;;11.98;6.13;;;;;;;0.68;88.35;102137.13;4935522;29;20035;-77
2021/01/14 10:00:27;;;;;;;15.38;6.80;;;;;;;0.65;89.39;102139.81;4951264;28;20036;-78
2021/01/14 10:03:04;;;;;;;14.75;6.60;;;;;;;0.71;89.24;102134.44;4939325;29;20051;-79
2021/01/14 10:05:31;;;;;;;12.10;5.60;;;;;;;0.75;88.46;102139.50;4926922;29;20042;-78
2021/01/14 10:08:01;;;;;;;10.82;6.15;;;;;;;0.72;88.48;102138.75;4908445;29;20118;-77
2021/01/14 10:10:30;;;;;;;10.35;5.40;;;;;;;0.70;87.79;102143.94;4910347;29;20039;-76
2021/01/14 10:12:58;;;;;;;14.25;5.70;;;;;;;0.73;88.40;102153.31;4934743;29;20036;-76
2021/01/14 10:15:23;;;;;;;12.23;5.35;;;;;;;0.72;87.53;102151.66;4919457;29;20453;-77
2021/01/14 10:17:49;;;;;;;10.98;5.00;;;;;;;0.70;89.14;102153.44;4919073;29;20069;-76
2021/01/14 10:20:15;;;;;;;9.45;5.50;;;;;;;0.62;88.98;102145.91;4918541;29;20063;-76
2021/01/14 10:22:51;;;;;;;11.63;4.85;;;;;;;0.69;89.32;102157.75;4934972;29;20102;-76
2021/01/14 10:25:19;;;;;;;10.30;5.68;;;;;;;0.77;89.11;102165.25;4919277;29;20039;-76
2021/01/14 10:28:01;;;;;;;9.88;5.50;;;;;;;0.64;89.23;102157.06;4935456;29;20032;-76
2021/01/14 10:30:27;;;;;;;11.90;5.43;;;;;;;0.57;89.38;102158.97;4951276;29;20066;-76
2021/01/14 10:33:01;;;;;;;12.25;6.00;;;;;;;0.62;89.25;102161.41;4919557;29;20293;-78
2021/01/14 10:35:28;;;;;;;12.57;5.72;;;;;;;0.51;89.05;102166.03;4970787;28;20059;-76
2021/01/14 10:38:05;;;;;;;11.57;5.60;;;;;;;0.53;89.97;102170.28;4937935;29;20058;-76
2021/01/14 10:40:35;;;;;;;11.77;6.20;;;;;;;0.54;89.86;102171.97;4928957;29;20042;-77
2021/01/14 10:43:01;;;;;;;9.68;5.65;;;;;;;0.50;90.33;102167.78;4933061;29;20039;-75
2021/01/14 10:45:28;;;;;;;12.65;6.70;;;;;;;0.53;90.52;102172.03;4903256;29;20090;-77
2021/01/14 10:48:13;;;;;;;15.85;6.90;;;;;;;0.48;90.45;102174.75;4967159;28;20097;-77
2021/01/14 10:50:43;;;;;;;17.50;7.57;;;;;;;0.47;91.20;102173.06;4934095;29;20538;-78
2021/01/14 10:53:09;;;;;;;15.07;6.53;;;;;;;0.49;90.57;102175.59;4933969;29;20040;-79
2021/01/14 10:55:35;;;;;;;13.00;6.90;;;;;;;0.46;90.48;102184.28;4902511;29;20047;-78
2021/01/14 10:58:05;;;;;;;20.67;7.60;;;;;;;0.33;90.62;102177.78;4918228;29;20036;-76
2021/01/14 11:00:35;;;;;;;18.63;7.18;;;;;;;0.33;91.86;102190.69;4918008;29;20505;-78
2021/01/14 11:03:03;;;;;;;13.60;7.07;;;;;;;0.39;91.48;102195.66;4934203;29;20036;-76
2021/01/14 11:06:01;;;;;;;14.73;6.78;;;;;;;0.45;91.62;102194.63;4934425;29;20058;-78
2021/01/14 11:08:37;;;;;;;15.93;6.78;;;;;;;0.46;91.63;102196.34;4887666;29;20043;-79
2021/01/14 11:11:08;;;;;;;18.73;7.47;;;;;;;0.32;91.25;102179.53;4917588;29;20075;-78
2021/01/14 11:13:48;;;;;;;17.95;6.82;;;;;;;0.43;91.47;102186.09;4931704;29;20593;-78
2021/01/14 11:16:16;;;;;;;13.13;7.47;;;;;;;0.42;91.11;102193.00;4917598;29;20094;-78
2021/01/14 11:18:50;;;;;;;14.60;7.45;;;;;;;0.43;91.32;102196.41;4918688;29;20486;-78
2021/01/14 11:21:26;;;;;;;16.80;7.40;;;;;;;0.45;91.48;102189.47;4905510;29;20039;-76
2021/01/14 11:23:52;;;;;;;17.40;7.35;;;;;;;0.35;91.39;102189.75;4921869;29;20489;-77
2021/01/14 11:26:19;;;;;;;10.32;6.63;;;;;;;0.44;91.24;102185.22;4937158;29;20046;-78
2021/01/14 11:28:46;;;;;;;12.10;6.53;;;;;;;0.57;91.98;102195.13;4929041;29;20039;-79
2021/01/14 11:31:13;;;;;;;15.50;6.75;;;;;;;0.47;91.63;102183.41;4933422;29;20043;-78
2021/01/14 11:33:38;;;;;;;13.77;6.38;;;;;;;0.47;91.62;102191.13;4902404;29;20071;-78
2021/01/14 11:36:11;;;;;;;15.50;6.78;;;;;;;0.33;91.90;102182.94;4914689;29;20461;-77